sensor_id;sensor_type;location;lat;lon;timestamp;P1;durP1;ratioP1;P2;durP2;ratioP2
35444;SDS011;21562;49.476;6.086;2023-06-22T00:00:52;11.43;;;7.38;;
35444;SDS011;21562;49.476;6.086;2023-06-22T00:03:20;13.25;;;7.85;;
35444;SDS011;21562;49.476;6.086;2023-06-22T00:05:47;8.77;;;6.93;;
35444;SDS011;21562;49.476;6.086;2023-06-22T00:08:13;12.38;;;7.30;;
35444;SDS011;21562;49.476;6.086;2023-06-22T00:10:39;11.00;;;6.70;;
35444;SDS011;21562;49.476;6.086;2023-06-22T00:13:05;10.43;;;7.43;;
35444;SDS011;21562;49.476;6.086;2023-06-22T00:15:31;12.85;;;7.35;;
35444;SDS011;21562;49.476;6.086;2023-06-22T00:17:57;12.40;;;8.15;;
35444;SDS011;21562;49.476;6.086;2023-06-22T00:20:23;12.27;;;7.78;;
35444;SDS011;21562;49.476;6.086;2023-06-22T00:22:55;12.05;;;7.05;;
35444;SDS011;21562;49.476;6.086;2023-06-22T00:25:22;13.00;;;7.25;;
35444;SDS011;21562;49.476;6.086;2023-06-22T00:27:48;14.32;;;7.25;;
35444;SDS011;21562;49.476;6.086;2023-06-22T00:30:17;10.02;;;7.90;;
35444;SDS011;21562;49.476;6.086;2023-06-22T00:32:44;12.55;;;8.57;;
35444;SDS011;21562;49.476;6.086;2023-06-22T00:35:11;11.82;;;8.18;;
35444;SDS011;21562;49.476;6.086;2023-06-22T00:37:38;14.35;;;8.23;;
35444;SDS011;21562;49.476;6.086;2023-06-22T00:40:07;10.65;;;8.05;;
35444;SDS011;21562;49.476;6.086;2023-06-22T00:42:36;12.10;;;8.52;;
35444;SDS011;21562;49.476;6.086;2023-06-22T00:45:02;11.35;;;7.63;;
35444;SDS011;21562;49.476;6.086;2023-06-22T00:47:28;14.10;;;8.70;;
35444;SDS011;21562;49.476;6.086;2023-06-22T00:49:54;11.82;;;8.25;;
35444;SDS011;21562;49.476;6.086;2023-06-22T00:52:20;13.85;;;8.57;;
35444;SDS011;21562;49.476;6.086;2023-06-22T00:54:51;16.58;;;9.35;;
35444;SDS011;21562;49.476;6.086;2023-06-22T00:57:17;12.98;;;8.40;;
35444;SDS011;21562;49.476;6.086;2023-06-22T00:59:45;12.10;;;8.95;;
35444;SDS011;21562;49.476;6.086;2023-06-22T01:02:12;12.55;;;8.60;;
35444;SDS011;21562;49.476;6.086;2023-06-22T01:04:39;18.08;;;8.93;;
35444;SDS011;21562;49.476;6.086;2023-06-22T01:12:28;16.55;;;8.85;;
35444;SDS011;21562;49.476;6.086;2023-06-22T01:15:00;13.27;;;8.75;;
35444;SDS011;21562;49.476;6.086;2023-06-22T01:17:35;15.00;;;8.25;;
35444;SDS011;21562;49.476;6.086;2023-06-22T01:20:04;12.82;;;9.13;;
35444;SDS011;21562;49.476;6.086;2023-06-22T01:22:36;12.48;;;8.60;;
35444;SDS011;21562;49.476;6.086;2023-06-22T01:31:02;11.93;;;8.38;;
35444;SDS011;21562;49.476;6.086;2023-06-22T01:33:34;11.52;;;8.02;;
35444;SDS011;21562;49.476;6.086;2023-06-22T01:36:03;14.35;;;8.48;;
35444;SDS011;21562;49.476;6.086;2023-06-22T01:38:30;11.45;;;8.95;;
35444;SDS011;21562;49.476;6.086;2023-06-22T01:40:59;11.88;;;9.30;;
35444;SDS011;21562;49.476;6.086;2023-06-22T01:43:26;13.88;;;8.88;;
35444;SDS011;21562;49.476;6.086;2023-06-22T01:45:54;14.05;;;9.05;;
35444;SDS011;21562;49.476;6.086;2023-06-22T01:48:21;17.75;;;9.05;;
35444;SDS011;21562;49.476;6.086;2023-06-22T01:50:48;13.70;;;9.07;;
35444;SDS011;21562;49.476;6.086;2023-06-22T01:53:14;16.27;;;9.40;;
35444;SDS011;21562;49.476;6.086;2023-06-22T01:55:39;12.98;;;9.05;;
35444;SDS011;21562;49.476;6.086;2023-06-22T01:58:05;15.85;;;9.25;;
35444;SDS011;21562;49.476;6.086;2023-06-22T02:00:34;14.07;;;10.50;;
35444;SDS011;21562;49.476;6.086;2023-06-22T02:03:17;13.55;;;9.85;;
35444;SDS011;21562;49.476;6.086;2023-06-22T02:05:48;17.90;;;10.43;;
35444;SDS011;21562;49.476;6.086;2023-06-22T02:08:23;14.18;;;10.43;;
35444;SDS011;21562;49.476;6.086;2023-06-22T02:10:53;13.52;;;10.05;;
35444;SDS011;21562;49.476;6.086;2023-06-22T02:13:20;14.27;;;9.38;;
35444;SDS011;21562;49.476;6.086;2023-06-22T02:15:49;14.05;;;10.25;;
35444;SDS011;21562;49.476;6.086;2023-06-22T02:18:15;16.55;;;11.10;;
35444;SDS011;21562;49.476;6.086;2023-06-22T02:20:41;16.83;;;10.43;;
35444;SDS011;21562;49.476;6.086;2023-06-22T02:23:06;15.48;;;10.43;;
35444;SDS011;21562;49.476;6.086;2023-06-22T02:25:33;14.27;;;9.43;;
35444;SDS011;21562;49.476;6.086;2023-06-22T02:27:59;13.07;;;9.55;;
35444;SDS011;21562;49.476;6.086;2023-06-22T02:30:25;20.58;;;10.73;;
35444;SDS011;21562;49.476;6.086;2023-06-22T02:32:50;14.68;;;10.15;;
35444;SDS011;21562;49.476;6.086;2023-06-22T02:35:23;14.70;;;10.43;;
35444;SDS011;21562;49.476;6.086;2023-06-22T02:37:57;16.00;;;11.43;;
35444;SDS011;21562;49.476;6.086;2023-06-22T02:40:25;16.83;;;11.43;;
35444;SDS011;21562;49.476;6.086;2023-06-22T02:42:51;19.60;;;12.20;;
35444;SDS011;21562;49.476;6.086;2023-06-22T02:45:17;18.58;;;11.98;;
35444;SDS011;21562;49.476;6.086;2023-06-22T02:47:43;13.90;;;10.65;;
35444;SDS011;21562;49.476;6.086;2023-06-22T02:50:09;16.88;;;11.15;;
35444;SDS011;21562;49.476;6.086;2023-06-22T02:52:35;17.85;;;11.45;;
35444;SDS011;21562;49.476;6.086;2023-06-22T02:55:00;16.30;;;11.70;;
35444;SDS011;21562;49.476;6.086;2023-06-22T02:57:26;15.88;;;10.50;;
35444;SDS011;21562;49.476;6.086;2023-06-22T02:59:52;14.15;;;10.52;;
35444;SDS011;21562;49.476;6.086;2023-06-22T03:02:17;16.08;;;10.85;;
35444;SDS011;21562;49.476;6.086;2023-06-22T03:04:46;16.42;;;11.07;;
35444;SDS011;21562;49.476;6.086;2023-06-22T03:07:14;15.52;;;11.50;;
35444;SDS011;21562;49.476;6.086;2023-06-22T03:09:40;17.92;;;11.20;;
35444;SDS011;21562;49.476;6.086;2023-06-22T03:12:07;17.63;;;12.70;;
35444;SDS011;21562;49.476;6.086;2023-06-22T03:14:33;15.02;;;11.30;;
35444;SDS011;21562;49.476;6.086;2023-06-22T03:16:58;16.25;;;11.50;;
35444;SDS011;21562;49.476;6.086;2023-06-22T03:19:28;21.15;;;12.73;;
35444;SDS011;21562;49.476;6.086;2023-06-22T03:21:56;18.13;;;12.50;;
35444;SDS011;21562;49.476;6.086;2023-06-22T03:24:25;19.75;;;12.05;;
35444;SDS011;21562;49.476;6.086;2023-06-22T03:26:53;13.95;;;11.50;;
35444;SDS011;21562;49.476;6.086;2023-06-22T03:29:19;17.65;;;11.23;;
35444;SDS011;21562;49.476;6.086;2023-06-22T03:31:45;18.35;;;12.02;;
35444;SDS011;21562;49.476;6.086;2023-06-22T03:34:11;19.83;;;12.00;;
35444;SDS011;21562;49.476;6.086;2023-06-22T03:36:36;16.92;;;12.27;;
35444;SDS011;21562;49.476;6.086;2023-06-22T03:39:02;18.33;;;12.00;;
35444;SDS011;21562;49.476;6.086;2023-06-22T03:41:28;16.80;;;12.55;;
35444;SDS011;21562;49.476;6.086;2023-06-22T03:43:53;18.85;;;13.32;;
35444;SDS011;21562;49.476;6.086;2023-06-22T03:46:19;17.77;;;13.27;;
35444;SDS011;21562;49.476;6.086;2023-06-22T03:48:45;19.95;;;13.75;;
35444;SDS011;21562;49.476;6.086;2023-06-22T03:51:10;19.02;;;13.20;;
35444;SDS011;21562;49.476;6.086;2023-06-22T03:53:36;17.65;;;13.52;;
35444;SDS011;21562;49.476;6.086;2023-06-22T03:56:02;14.77;;;13.18;;
35444;SDS011;21562;49.476;6.086;2023-06-22T03:58:27;18.00;;;13.85;;
35444;SDS011;21562;49.476;6.086;2023-06-22T04:00:57;20.13;;;14.20;;
